Time;durP1;ratioP1;P1;durP2;ratioP2;P2;SDS_P1;SDS_P2;PMS_P1;PMS_P2;Temp;Humidity;BMP_temperature;BMP_pressure;BME280_temperature;BME280_humidity;BME280_pressure;Samples;Min_cycle;Max_cycle;Signal;HPM_P1;HPM_P2
2021/05/05 00:00:14;;;;;;;0.67;0.50;;;8.40;99.90;;;;;;5028953;28;20245;-78
2021/05/05 00:02:43;;;;;;;0.50;0.50;;;8.40;99.90;;;;;;5028132;28;20186;-79
2021/05/05 00:05:09;;;;;;;1.00;0.53;;;8.40;99.90;;;;;;5028471;28;20221;-77
2021/05/05 00:07:35;;;;;;;0.80;0.50;;;8.40;99.90;;;;;;5029016;28;20199;-78
2021/05/05 00:10:01;;;;;;;0.40;0.40;;;8.30;99.90;;;;;;5028867;28;20190;-77
2021/05/05 00:12:26;;;;;;;0.40;0.40;;;8.40;99.90;;;;;;5026914;28;20676;-78
2021/05/05 00:14:52;;;;;;;0.40;0.30;;;8.40;99.90;;;;;;5029101;28;20210;-77
2021/05/05 00:17:18;;;;;;;0.60;0.60;;;8.30;99.90;;;;;;5028548;28;20183;-76
2021/05/05 00:19:43;;;;;;;0.33;0.33;;;8.40;99.90;;;;;;5027423;28;20186;-80
2021/05/05 00:22:09;;;;;;;1.17;0.70;;;8.40;99.90;;;;;;5028259;28;20186;-77
2021/05/05 00:24:34;;;;;;;0.40;0.40;;;8.30;99.90;;;;;;5029649;28;20623;-77
2021/05/05 00:27:00;;;;;;;0.30;0.30;;;8.30;99.90;;;;;;5031452;28;20197;-79
2021/05/05 00:29:26;;;;;;;0.37;0.30;;;8.30;99.90;;;;;;5031997;28;20601;-78
2021/05/05 00:31:51;;;;;;;0.60;0.60;;;8.20;99.90;;;;;;5030182;28;20175;-77
2021/05/05 00:34:17;;;;;;;0.70;0.50;;;8.10;99.90;;;;;;5032498;28;20186;-79
2021/05/05 00:36:42;;;;;;;1.13;0.60;;;8.10;99.90;;;;;;5028503;28;20198;-78
2021/05/05 00:39:08;;;;;;;1.37;0.53;;;8.20;99.90;;;;;;5028333;28;20213;-78
2021/05/05 00:41:33;;;;;;;0.40;0.40;;;8.10;99.90;;;;;;5028888;28;20604;-77
2021/05/05 00:43:59;;;;;;;0.77;0.50;;;8.10;99.90;;;;;;5030164;28;20205;-78
2021/05/05 00:46:25;;;;;;;0.40;0.40;;;8.10;99.90;;;;;;5029926;28;20221;-77
2021/05/05 00:48:51;;;;;;;0.80;0.80;;;8.00;99.90;;;;;;5029812;28;20175;-79
2021/05/05 00:51:17;;;;;;;1.03;0.60;;;8.00;99.90;;;;;;5031605;28;20338;-77
2021/05/05 00:53:43;;;;;;;0.40;0.40;;;8.00;99.90;;;;;;5030708;28;20179;-78
2021/05/05 00:56:09;;;;;;;0.37;0.37;;;7.90;99.90;;;;;;5032621;28;20207;-77
2021/05/05 00:58:35;;;;;;;0.40;0.40;;;7.80;99.90;;;;;;5031484;28;20179;-76
2021/05/05 01:01:02;;;;;;;0.30;0.30;;;7.70;99.90;;;;;;5029636;28;20194;-78
2021/05/05 01:03:28;;;;;;;0.40;0.40;;;7.40;99.90;;;;;;5030770;28;20199;-79
2021/05/05 01:05:53;;;;;;;0.60;0.53;;;7.40;99.90;;;;;;5031584;28;20716;-77
2021/05/05 01:08:21;;;;;;;0.43;0.43;;;7.30;99.90;;;;;;5030199;28;20201;-78
2021/05/05 01:10:48;;;;;;;3.73;0.50;;;7.30;99.90;;;;;;5046427;28;20551;-81
2021/05/05 01:13:15;;;;;;;1.20;0.50;;;7.30;99.90;;;;;;5031216;28;20194;-77
2021/05/05 01:15:41;;;;;;;0.97;0.50;;;7.40;99.90;;;;;;5028851;28;20221;-78
2021/05/05 01:18:07;;;;;;;0.37;0.37;;;7.40;99.90;;;;;;5029425;28;20183;-78
2021/05/05 01:20:33;;;;;;;0.70;0.50;;;7.50;99.90;;;;;;5030071;28;20183;-76
2021/05/05 01:22:59;;;;;;;0.40;0.40;;;7.50;99.90;;;;;;5029600;28;20195;-78
2021/05/05 01:25:24;;;;;;;1.37;0.40;;;7.60;99.90;;;;;;5028021;28;20221;-77
2021/05/05 01:27:51;;;;;;;0.77;0.40;;;7.60;99.90;;;;;;5029018;28;20297;-78
2021/05/05 01:30:19;;;;;;;0.40;0.40;;;7.60;99.90;;;;;;5029716;28;20193;-79
2021/05/05 01:32:47;;;;;;;0.53;0.53;;;7.50;99.90;;;;;;5029648;28;20178;-80
2021/05/05 01:35:14;;;;;;;0.83;0.50;;;7.40;99.90;;;;;;5028456;28;20211;-80
2021/05/05 01:37:43;;;;;;;0.30;0.23;;;7.30;99.90;;;;;;5028666;28;20191;-77
2021/05/05 01:40:29;;;;;;;0.40;0.40;;;7.30;99.90;;;;;;5029949;28;20182;-80
2021/05/05 01:42:56;;;;;;;0.43;0.30;;;7.20;99.90;;;;;;5027943;28;20179;-77
2021/05/05 01:45:22;;;;;;;0.30;0.30;;;7.30;99.90;;;;;;5029305;28;20203;-78
2021/05/05 01:47:52;;;;;;;0.40;0.40;;;7.40;99.90;;;;;;5029986;28;20544;-77
2021/05/05 01:50:18;;;;;;;0.60;0.50;;;7.50;99.90;;;;;;5029644;28;20179;-80
2021/05/05 01:52:44;;;;;;;0.50;0.50;;;7.50;99.90;;;;;;5029686;28;20183;-80
2021/05/05 01:55:10;;;;;;;0.57;0.40;;;7.50;99.90;;;;;;5028245;28;20207;-80
2021/05/05 01:57:39;;;;;;;0.47;0.47;;;7.50;99.90;;;;;;5029994;28;20312;-78
2021/05/05 02:00:26;;;;;;;0.30;0.30;;;7.60;99.90;;;;;;5030225;28;20724;-78
2021/05/05 02:02:52;;;;;;;0.50;0.30;;;7.70;99.90;;;;;;5029385;28;20238;-78
2021/05/05 02:05:19;;;;;;;0.70;0.40;;;7.70;99.90;;;;;;5028901;28;20352;-77
2021/05/05 02:07:45;;;;;;;0.77;0.63;;;7.70;99.90;;;;;;5029930;28;20705;-78
2021/05/05 02:10:16;;;;;;;0.70;0.50;;;7.70;99.90;;;;;;5027906;28;20186;-78
2021/05/05 02:12:41;;;;;;;0.30;0.30;;;7.70;99.90;;;;;;5028620;28;20179;-78
2021/05/05 02:15:09;;;;;;;0.80;0.50;;;7.80;99.90;;;;;;5028379;28;20218;-78
2021/05/05 02:17:36;;;;;;;0.53;0.40;;;7.80;99.90;;;;;;5027726;28;20644;-78
2021/05/05 02:20:04;;;;;;;0.60;0.60;;;7.80;99.90;;;;;;5029908;28;20201;-78
2021/05/05 02:22:30;;;;;;;0.40;0.40;;;7.80;99.90;;;;;;5030000;28;20332;-77
2021/05/05 02:24:55;;;;;;;0.43;0.43;;;7.80;99.90;;;;;;5029354;28;20751;-77
2021/05/05 02:27:21;;;;;;;1.67;0.87;;;7.80;99.90;;;;;;5027435;28;21204;-77
2021/05/05 02:29:47;;;;;;;0.40;0.40;;;7.80;99.90;;;;;;5027600;28;20179;-78
2021/05/05 02:32:16;;;;;;;0.30;0.30;;;7.80;99.90;;;;;;5028067;28;20174;-77
2021/05/05 02:34:42;;;;;;;1.03;0.50;;;7.80;99.90;;;;;;5026550;28;20183;-78
2021/05/05 02:37:09;;;;;;;0.40;0.40;;;7.80;99.90;;;;;;5025782;28;20207;-76
2021/05/05 02:39:39;;;;;;;0.30;0.30;;;7.80;99.90;;;;;;5026507;28;20186;-79
2021/05/05 02:42:06;;;;;;;0.50;0.50;;;7.80;99.90;;;;;;5027860;28;20201;-80
2021/05/05 02:44:31;;;;;;;1.07;0.60;;;7.80;99.90;;;;;;5026644;28;20534;-80
2021/05/05 02:46:59;;;;;;;0.50;0.50;;;7.70;99.90;;;;;;5028133;28;20182;-78
2021/05/05 02:49:24;;;;;;;0.40;0.40;;;7.70;99.90;;;;;;5028358;28;20828;-78
2021/05/05 02:51:50;;;;;;;0.30;0.30;;;7.70;99.90;;;;;;5027817;28;20264;-78
2021/05/05 02:54:15;;;;;;;0.63;0.63;;;7.70;99.90;;;;;;5027242;28;20199;-77
2021/05/05 02:56:41;;;;;;;0.40;0.40;;;7.60;99.90;;;;;;5026642;28;20203;-77
2021/05/05 02:59:07;;;;;;;0.50;0.50;;;7.60;99.90;;;;;;5028559;28;20676;-76
2021/05/05 03:01:32;;;;;;;1.47;1.00;;;7.50;99.90;;;;;;5028260;28;20198;-79
2021/05/05 03:03:58;;;;;;;0.40;0.40;;;7.40;99.90;;;;;;5027575;28;20217;-78
2021/05/05 03:06:23;;;;;;;1.10;0.83;;;7.40;99.90;;;;;;5028266;28;20199;-78
2021/05/05 03:08:50;;;;;;;1.30;0.90;;;7.40;99.90;;;;;;5027891;28;20179;-77
2021/05/05 03:11:15;;;;;;;0.97;0.63;;;7.40;99.90;;;;;;5028465;28;20178;-78
2021/05/05 03:13:41;;;;;;;0.40;0.40;;;7.50;99.90;;;;;;5026383;28;20258;-78
2021/05/05 03:16:07;;;;;;;1.00;0.80;;;7.50;99.90;;;;;;5027685;28;20218;-77
2021/05/05 03:18:33;;;;;;;0.50;0.50;;;7.60;99.90;;;;;;5028767;28;20255;-78
2021/05/05 03:20:59;;;;;;;0.77;0.70;;;7.60;99.90;;;;;;5027540;28;20664;-78
2021/05/05 03:23:27;;;;;;;0.60;0.50;;;7.50;99.90;;;;;;5028646;28;20195;-76
2021/05/05 03:25:52;;;;;;;0.90;0.67;;;7.60;99.90;;;;;;5028771;28;20198;-79
2021/05/05 03:28:18;;;;;;;0.70;0.60;;;7.50;99.90;;;;;;5028541;28;20187;-79
2021/05/05 03:30:43;;;;;;;0.97;0.80;;;7.50;99.90;;;;;;5029520;28;20673;-77
2021/05/05 03:33:09;;;;;;;1.10;1.00;;;7.40;99.90;;;;;;5029223;28;20317;-78
2021/05/05 03:35:35;;;;;;;0.70;0.70;;;7.40;99.90;;;;;;5027400;28;20217;-78
2021/05/05 03:38:00;;;;;;;0.50;0.50;;;7.50;99.90;;;;;;5027874;28;20206;-77
2021/05/05 03:40:28;;;;;;;0.47;0.47;;;7.50;99.90;;;;;;5028511;28;20574;-77
2021/05/05 03:42:54;;;;;;;1.03;0.53;;;7.50;99.90;;;;;;5028434;28;20664;-79
2021/05/05 03:45:20;;;;;;;3.20;0.93;;;7.50;99.90;;;;;;5043143;28;20213;-78
2021/05/05 03:47:45;;;;;;;0.70;0.63;;;7.20;99.90;;;;;;5028764;28;20190;-78
2021/05/05 03:50:11;;;;;;;0.50;0.50;;;7.10;99.90;;;;;;5028374;28;20197;-78
2021/05/05 03:52:37;;;;;;;0.70;0.70;;;7.00;99.90;;;;;;5028966;28;20261;-79
2021/05/05 03:55:04;;;;;;;0.60;0.60;;;6.90;99.90;;;;;;5026034;28;20210;-79
2021/05/05 03:57:29;;;;;;;1.50;0.80;;;6.80;99.90;;;;;;5028318;28;20217;-78
2021/05/05 03:59:55;;;;;;;1.23;0.50;;;6.70;99.90;;;;;;5029442;28;20206;-78
2021/05/05 04:02:21;;;;;;;1.03;0.80;;;6.60;99.90;;;;;;5031152;28;20545;-78
2021/05/05 04:04:46;;;;;;;0.77;0.77;;;6.50;99.90;;;;;;5032171;28;20210;-78
2021/05/05 04:07:12;;;;;;;0.50;0.50;;;6.50;99.90;;;;;;5032676;28;20187;-78
2021/05/05 04:09:37;;;;;;;0.97;0.97;;;6.40;99.90;;;;;;5030637;28;20193;-79
2021/05/05 04:12:04;;;;;;;0.80;0.80;;;6.50;99.90;;;;;;5032220;28;20183;-78
2021/05/05 04:14:30;;;;;;;1.40;0.90;;;6.40;99.90;;;;;;5030895;28;20286;-79
2021/05/05 04:16:56;;;;;;;0.87;0.87;;;6.50;99.90;;;;;;5032713;28;20185;-79
2021/05/05 04:19:21;;;;;;;1.00;0.80;;;6.50;99.90;;;;;;5031308;28;20592;-79
2021/05/05 04:21:48;;;;;;;0.67;0.67;;;6.60;99.90;;;;;;5030539;28;20178;-78
2021/05/05 04:24:14;;;;;;;0.93;0.93;;;6.70;99.90;;;;;;5031322;28;20210;-78
2021/05/05 04:26:40;;;;;;;1.10;1.03;;;6.90;99.90;;;;;;5031492;28;20206;-78
2021/05/05 04:29:05;;;;;;;1.47;1.37;;;6.70;99.90;;;;;;5030817;28;20218;-78
2021/05/05 04:31:31;;;;;;;2.03;1.63;;;6.70;99.90;;;;;;5032287;28;20175;-79
2021/05/05 04:33:57;;;;;;;1.40;1.20;;;6.60;99.90;;;;;;5032154;28;20183;-79
2021/05/05 04:36:23;;;;;;;1.60;1.33;;;6.60;99.90;;;;;;5030987;28;20624;-78
2021/05/05 04:38:48;;;;;;;1.83;1.20;;;6.50;99.90;;;;;;5030746;28;20217;-80
2021/05/05 04:41:14;;;;;;;1.40;1.30;;;6.60;99.90;;;;;;5032463;28;20195;-79
2021/05/05 04:43:40;;;;;;;2.17;1.97;;;6.50;99.90;;;;;;5031033;28;20206;-79
2021/05/05 04:46:05;;;;;;;1.37;1.27;;;6.50;99.90;;;;;;5031154;28;20282;-78
2021/05/05 04:48:31;;;;;;;1.83;1.60;;;6.50;99.90;;;;;;5033304;28;20185;-77
2021/05/05 04:50:57;;;;;;;1.40;1.30;;;6.40;99.90;;;;;;5033010;28;20183;-79
2021/05/05 04:53:25;;;;;;;1.40;1.30;;;6.40;99.90;;;;;;5031067;28;21164;-79
2021/05/05 04:55:52;;;;;;;1.87;1.50;;;6.50;99.90;;;;;;5032567;28;20728;-77
2021/05/05 04:58:18;;;;;;;1.30;1.20;;;6.40;99.90;;;;;;5031920;28;20274;-77
2021/05/05 05:00:44;;;;;;;1.30;1.20;;;6.40;99.90;;;;;;5031743;28;20194;-77
2021/05/05 05:03:10;;;;;;;1.80;1.40;;;6.40;99.90;;;;;;5031826;28;20211;-79
2021/05/05 05:05:36;;;;;;;1.40;1.30;;;6.40;99.90;;;;;;5029113;28;20198;-78
2021/05/05 05:08:02;;;;;;;1.77;1.40;;;6.50;99.90;;;;;;5032500;28;20553;-77
2021/05/05 05:10:27;;;;;;;1.43;1.33;;;6.60;99.90;;;;;;5030414;28;20183;-79
2021/05/05 05:12:54;;;;;;;1.70;1.60;;;6.70;99.90;;;;;;5031954;28;20182;-78
2021/05/05 05:15:19;;;;;;;1.10;1.00;;;6.90;99.90;;;;;;5030370;28;20195;-79
2021/05/05 05:17:45;;;;;;;1.10;1.00;;;6.90;99.90;;;;;;5030636;28;20231;-77
2021/05/05 05:20:11;;;;;;;1.33;1.20;;;6.90;99.90;;;;;;5030077;28;20187;-78
2021/05/05 05:22:37;;;;;;;1.23;1.13;;;7.00;99.90;;;;;;5031710;28;20190;-78
2021/05/05 05:25:10;;;;;;;3.13;1.87;;;7.10;99.90;;;;;;5030944;28;20211;-79
2021/05/05 05:27:36;;;;;;;3.40;1.50;;;7.10;99.90;;;;;;5030089;28;20183;-78
2021/05/05 05:30:02;;;;;;;2.07;1.63;;;7.10;99.90;;;;;;5031682;28;20210;-78
2021/05/05 05:32:28;;;;;;;1.53;1.30;;;7.10;99.90;;;;;;5031016;28;20178;-77
2021/05/05 05:34:53;;;;;;;1.73;1.30;;;7.20;99.90;;;;;;5030251;28;20203;-78
2021/05/05 05:37:19;;;;;;;1.40;1.30;;;7.30;99.90;;;;;;5029621;28;20240;-78
2021/05/05 05:39:45;;;;;;;1.20;1.10;;;7.20;99.90;;;;;;5030304;28;20201;-77
2021/05/05 05:42:11;;;;;;;1.33;0.97;;;7.20;99.90;;;;;;5031005;28;20187;-78
2021/05/05 05:44:36;;;;;;;1.60;1.50;;;7.20;99.90;;;;;;5028492;28;20219;-78
2021/05/05 05:47:02;;;;;;;1.20;1.10;;;7.30;99.90;;;;;;5027693;28;20182;-78
2021/05/05 05:49:28;;;;;;;1.37;0.97;;;7.40;99.90;;;;;;5027424;28;20183;-79
2021/05/05 05:51:54;;;;;;;1.77;1.23;;;7.50;99.90;;;;;;5027612;28;20179;-77
2021/05/05 05:54:20;;;;;;;1.37;1.23;;;7.80;99.90;;;;;;5029305;28;20179;-77
2021/05/05 05:56:45;;;;;;;1.20;1.10;;;8.00;99.90;;;;;;5029905;28;20381;-77
2021/05/05 05:59:11;;;;;;;1.50;1.40;;;8.20;99.90;;;;;;5028321;28;20208;-77
2021/05/05 06:01:37;;;;;;;1.70;1.40;;;8.20;99.90;;;;;;5028797;28;20653;-78
2021/05/05 06:04:02;;;;;;;1.43;1.33;;;8.10;99.90;;;;;;5026384;28;20217;-79
2021/05/05 06:06:28;;;;;;;1.30;1.20;;;8.10;99.90;;;;;;5025153;28;20195;-77
2021/05/05 06:08:54;;;;;;;1.10;1.00;;;8.20;99.90;;;;;;5027869;28;20175;-78
2021/05/05 06:11:19;;;;;;;0.63;0.63;;;8.20;99.90;;;;;;5029675;28;20258;-78
2021/05/05 06:13:45;;;;;;;0.77;0.77;;;8.20;99.90;;;;;;5029286;28;20182;-77
2021/05/05 06:16:10;;;;;;;0.80;0.80;;;8.40;99.90;;;;;;5030035;28;20203;-78
2021/05/05 06:18:36;;;;;;;0.87;0.87;;;8.60;99.90;;;;;;5030328;28;20187;-78
2021/05/05 06:21:02;;;;;;;0.87;0.87;;;9.30;99.90;;;;;;5030226;28;20190;-78
2021/05/05 06:23:27;;;;;;;1.63;1.33;;;9.90;99.90;;;;;;5029233;28;20207;-77
2021/05/05 06:25:53;;;;;;;0.57;0.57;;;9.50;99.90;;;;;;5029982;28;20264;-78
2021/05/05 06:28:18;;;;;;;0.70;0.70;;;9.10;99.90;;;;;;5030818;28;20576;-78
2021/05/05 06:30:44;;;;;;;1.10;0.90;;;9.00;99.90;;;;;;5029502;28;20248;-80
2021/05/05 06:33:10;;;;;;;1.90;0.80;;;9.10;99.90;;;;;;5029743;28;20283;-79
2021/05/05 06:35:35;;;;;;;0.90;0.90;;;9.10;99.90;;;;;;5029334;28;20245;-79
2021/05/05 06:38:02;;;;;;;0.90;0.90;;;8.90;99.90;;;;;;5028680;28;20344;-80
2021/05/05 06:40:27;;;;;;;1.47;1.37;;;8.90;99.90;;;;;;5028064;28;20209;-78
2021/05/05 06:42:53;;;;;;;2.20;0.90;;;8.90;99.90;;;;;;5029019;28;20238;-80
2021/05/05 06:45:19;;;;;;;1.63;1.17;;;9.10;99.90;;;;;;5027291;28;20221;-79
2021/05/05 06:47:44;;;;;;;1.40;1.30;;;9.50;99.90;;;;;;5027873;28;20663;-79
2021/05/05 06:50:11;;;;;;;0.90;0.90;;;9.40;99.90;;;;;;5029029;28;20183;-79
2021/05/05 06:52:37;;;;;;;1.63;0.97;;;9.20;99.90;;;;;;5026970;28;20179;-80
2021/05/05 06:55:03;;;;;;;0.97;0.97;;;9.10;99.90;;;;;;5028973;28;20582;-79
2021/05/05 06:57:29;;;;;;;1.57;1.30;;;9.00;99.90;;;;;;5029027;28;20182;-80
2021/05/05 06:59:54;;;;;;;1.13;1.07;;;9.30;99.90;;;;;;5027882;28;20179;-79
2021/05/05 07:02:20;;;;;;;1.60;1.40;;;9.70;99.90;;;;;;5027057;28;20179;-76
2021/05/05 07:04:47;;;;;;;0.97;0.97;;;9.60;99.90;;;;;;5027324;28;20219;-77
2021/05/05 07:07:12;;;;;;;0.90;0.90;;;9.30;99.90;;;;;;5024229;28;20182;-76
2021/05/05 07:09:38;;;;;;;1.00;0.90;;;9.70;99.90;;;;;;5025800;28;20205;-79
2021/05/05 07:12:04;;;;;;;1.53;1.20;;;10.00;99.90;;;;;;5026712;28;20714;-78
2021/05/05 07:14:30;;;;;;;1.23;1.00;;;9.70;99.90;;;;;;5025461;28;20191;-79
2021/05/05 07:16:55;;;;;;;1.07;0.97;;;9.30;99.90;;;;;;5026719;28;20240;-80
2021/05/05 07:19:21;;;;;;;1.00;1.00;;;9.00;99.90;;;;;;5025121;28;20203;-78
2021/05/05 07:21:46;;;;;;;1.10;1.00;;;8.80;99.90;;;;;;5025499;28;20270;-76
2021/05/05 07:24:12;;;;;;;1.00;0.90;;;8.50;99.90;;;;;;5026279;28;20213;-80
2021/05/05 07:26:38;;;;;;;2.00;1.30;;;8.30;99.90;;;;;;5025754;28;20294;-79
2021/05/05 07:29:04;;;;;;;1.60;1.50;;;8.00;99.90;;;;;;5025083;28;20318;-81
2021/05/05 07:31:30;;;;;;;1.73;1.20;;;8.00;99.90;;;;;;5024820;28;20190;-77
2021/05/05 07:33:57;;;;;;;1.40;1.27;;;8.00;99.90;;;;;;5025176;28;20191;-77
2021/05/05 07:36:27;;;;;;;1.43;1.33;;;7.90;99.90;;;;;;5026530;28;20218;-77
2021/05/05 07:47:00;;;;;;;1.50;1.40;;;7.50;99.90;;;;;;5027423;28;20244;-78
2021/05/05 07:49:26;;;;;;;1.10;1.10;;;7.80;99.90;;;;;;5028544;28;20175;-78
2021/05/05 07:51:52;;;;;;;0.87;0.87;;;8.20;99.90;;;;;;5027382;28;20190;-78
2021/05/05 07:54:19;;;;;;;0.87;0.87;;;8.40;99.90;;;;;;5027896;28;20194;-77
2021/05/05 07:56:45;;;;;;;0.83;0.73;;;8.50;99.90;;;;;;5026485;28;20199;-78
2021/05/05 07:59:12;;;;;;;1.10;0.90;;;8.70;99.90;;;;;;5025195;28;20190;-78
2021/05/05 08:01:38;;;;;;;0.60;0.57;;;8.80;99.90;;;;;;5025935;28;20187;-77
2021/05/05 08:04:05;;;;;;;0.70;0.70;;;9.00;99.90;;;;;;5027383;28;20222;-78
2021/05/05 08:06:32;;;;;;;0.50;0.50;;;9.20;99.90;;;;;;5025703;28;20202;-77
2021/05/05 08:08:58;;;;;;;1.33;1.00;;;9.50;99.90;;;;;;5027209;28;20221;-76
2021/05/05 08:11:24;;;;;;;1.23;1.13;;;9.50;99.90;;;;;;5026795;28;20182;-76
2021/05/05 08:13:50;;;;;;;0.70;0.70;;;9.50;99.90;;;;;;5025431;28;20549;-76
2021/05/05 08:16:17;;;;;;;0.50;0.50;;;9.70;99.90;;;;;;5027357;28;20214;-78
2021/05/05 08:18:43;;;;;;;0.40;0.40;;;9.80;99.90;;;;;;5027371;28;20206;-76
2021/05/05 08:21:09;;;;;;;1.77;0.90;;;9.70;99.90;;;;;;5026229;28;20657;-81
2021/05/05 08:23:36;;;;;;;0.50;0.50;;;9.90;99.90;;;;;;5025261;28;20202;-77
2021/05/05 08:26:03;;;;;;;1.13;0.50;;;10.00;99.90;;;;;;5025104;28;20376;-79
2021/05/05 08:28:28;;;;;;;4.13;0.90;;;10.10;99.90;;;;;;5025525;28;20183;-76
2021/05/05 08:30:54;;;;;;;2.60;1.07;;;10.20;99.90;;;;;;5026089;28;20672;-78
2021/05/05 08:33:20;;;;;;;0.40;0.30;;;10.40;99.90;;;;;;5024686;28;20225;-76
2021/05/05 08:35:46;;;;;;;0.20;0.20;;;10.70;99.90;;;;;;5025209;28;20558;-80
2021/05/05 08:38:12;;;;;;;0.37;0.37;;;10.80;99.90;;;;;;5026595;28;20210;-78
2021/05/05 08:40:37;;;;;;;1.20;0.77;;;10.60;99.90;;;;;;5027187;28;20194;-79
2021/05/05 08:43:03;;;;;;;0.70;0.70;;;10.60;99.90;;;;;;5026432;28;20190;-78
2021/05/05 08:45:30;;;;;;;2.63;0.80;;;10.70;99.90;;;;;;5027645;28;20286;-80
2021/05/05 08:47:58;;;;;;;1.90;0.60;;;10.70;99.90;;;;;;5029446;28;20190;-76
2021/05/05 08:50:26;;;;;;;2.60;0.70;;;10.90;99.90;;;;;;5029668;28;20211;-78
2021/05/05 08:52:53;;;;;;;1.93;0.57;;;10.90;99.90;;;;;;5028226;28;20179;-77
2021/05/05 08:55:20;;;;;;;1.33;0.50;;;11.10;99.90;;;;;;5027997;28;20578;-77
2021/05/05 08:57:46;;;;;;;0.20;0.20;;;11.10;99.90;;;;;;5026819;28;20213;-78
2021/05/05 09:00:16;;;;;;;0.80;0.57;;;11.20;99.90;;;;;;5026108;28;20229;-77
2021/05/05 09:02:41;;;;;;;0.40;0.40;;;11.30;99.90;;;;;;5029134;28;20187;-76
2021/05/05 09:05:10;;;;;;;1.10;0.50;;;11.20;99.90;;;;;;5026875;28;20751;-77
2021/05/05 09:07:38;;;;;;;0.77;0.50;;;11.30;99.90;;;;;;5027204;28;20257;-75
2021/05/05 09:10:20;;;;;;;1.50;0.70;;;11.20;99.90;;;;;;5027183;28;20211;-75
2021/05/05 09:12:47;;;;;;;1.63;0.73;;;11.10;99.90;;;;;;5027743;28;20183;-80
2021/05/05 09:15:15;;;;;;;0.40;0.30;;;10.90;99.90;;;;;;5027024;28;20314;-75
2021/05/05 09:17:48;;;;;;;0.77;0.40;;;10.80;99.90;;;;;;5026096;28;20575;-77
2021/05/05 09:20:24;;;;;;;0.40;0.40;;;10.60;99.90;;;;;;5025912;28;20274;-77
2021/05/05 09:22:56;;;;;;;0.70;0.40;;;11.00;99.90;;;;;;5029050;28;20687;-76
2021/05/05 09:25:30;;;;;;;1.90;0.83;;;11.10;99.90;;;;;;5028900;28;20221;-76
2021/05/05 09:28:19;;;;;;;1.83;0.87;;;11.00;99.90;;;;;;5029118;28;20174;-79
2021/05/05 09:30:53;;;;;;;1.00;0.43;;;10.80;99.90;;;;;;5028707;28;20283;-80
2021/05/05 09:33:31;;;;;;;0.33;0.33;;;10.80;99.90;;;;;;5030018;28;20265;-81
2021/05/05 09:35:59;;;;;;;0.97;0.60;;;10.50;99.90;;;;;;5037433;28;20557;-80
2021/05/05 09:38:40;;;;;;;0.50;0.50;;;10.50;99.90;;;;;;5029373;28;20278;-78
2021/05/05 09:41:06;;;;;;;0.97;0.60;;;10.70;99.90;;;;;;5029150;28;20206;-80
2021/05/05 09:43:38;;;;;;;1.00;0.90;;;10.90;99.90;;;;;;5028245;28;21035;-80
2021/05/05 09:46:44;;;;;;;0.83;0.70;;;10.70;99.90;;;;;;5029392;28;20601;-77
2021/05/05 09:49:19;;;;;;;0.30;0.30;;;10.80;99.90;;;;;;5027637;28;20183;-79
2021/05/05 09:51:49;;;;;;;0.63;0.40;;;11.20;99.90;;;;;;5029369;28;20231;-76
2021/05/05 09:54:24;;;;;;;0.60;0.60;;;11.50;99.90;;;;;;5027626;28;20190;-75
2021/05/05 09:56:50;;;;;;;1.63;0.90;;;11.70;99.90;;;;;;5042958;28;20209;-75
2021/05/05 09:59:16;;;;;;;0.83;0.70;;;12.20;99.90;;;;;;5027575;28;20559;-77
2021/05/05 10:01:57;;;;;;;0.60;0.50;;;12.50;99.90;;;;;;5030091;28;20652;-75
2021/05/05 10:04:23;;;;;;;1.20;0.50;;;12.30;99.90;;;;;;5044860;28;20194;-77
2021/05/05 10:06:56;;;;;;;0.93;0.70;;;11.60;99.90;;;;;;5029552;28;20206;-77
2021/05/05 10:09:24;;;;;;;2.60;0.70;;;11.30;99.90;;;;;;5028879;28;20901;-76
2021/05/05 10:11:50;;;;;;;1.30;0.70;;;11.00;99.90;;;;;;5029650;28;20589;-79
2021/05/05 10:14:17;;;;;;;0.90;0.70;;;11.20;99.90;;;;;;5029718;28;20215;-80
2021/05/05 10:16:52;;;;;;;0.47;0.47;;;11.20;99.90;;;;;;5028210;28;20199;-76
2021/05/05 10:19:23;;;;;;;0.83;0.30;;;11.50;99.90;;;;;;5027384;28;20209;-77
2021/05/05 10:22:01;;;;;;;0.50;0.50;;;11.60;99.90;;;;;;5043739;28;20206;-81
2021/05/05 10:24:29;;;;;;;0.50;0.40;;;11.80;99.90;;;;;;5026048;28;20293;-79
2021/05/05 10:26:56;;;;;;;1.30;0.60;;;11.70;99.90;;;;;;5030410;28;20215;-79
2021/05/05 10:29:22;;;;;;;1.27;0.60;;;11.80;99.90;;;;;;5029373;28;20179;-79
2021/05/05 10:31:54;;;;;;;0.90;0.63;;;12.00;99.90;;;;;;5030199;28;20194;-76
2021/05/05 10:34:21;;;;;;;1.37;0.70;;;11.70;99.90;;;;;;5029812;28;20194;-77
2021/05/05 10:36:56;;;;;;;0.47;0.30;;;11.40;99.90;;;;;;5030234;28;20226;-79
2021/05/05 10:39:22;;;;;;;0.40;0.40;;;11.30;99.90;;;;;;5029313;28;20212;-79
2021/05/05 10:42:02;;;;;;;0.73;0.70;;;11.20;99.90;;;;;;5028708;28;20206;-78
2021/05/05 10:44:42;;;;;;;0.57;0.57;;;11.60;99.90;;;;;;5028314;28;20198;-80
2021/05/05 10:47:12;;;;;;;0.60;0.60;;;11.90;99.90;;;;;;5029274;28;20202;-79
2021/05/05 10:50:06;;;;;;;0.80;0.70;;;12.00;99.90;;;;;;5029800;28;20179;-77
2021/05/05 10:52:35;;;;;;;2.10;0.50;;;12.20;99.90;;;;;;5029612;28;20680;-80
2021/05/05 10:55:03;;;;;;;0.77;0.77;;;12.10;99.90;;;;;;5028822;28;20199;-76
2021/05/05 10:57:29;;;;;;;0.60;0.60;;;12.10;99.90;;;;;;5027652;28;20596;-77
2021/05/05 11:00:03;;;;;;;1.07;0.80;;;11.70;99.90;;;;;;5028241;28;20183;-77
2021/05/05 11:02:51;;;;;;;0.70;0.70;;;11.60;99.90;;;;;;5029631;28;20175;-80
2021/05/05 11:05:20;;;;;;;0.60;0.60;;;11.40;99.90;;;;;;5029936;28;20293;-79
2021/05/05 11:07:49;;;;;;;2.20;0.63;;;11.40;99.90;;;;;;5028761;28;20179;-77
2021/05/05 11:10:34;;;;;;;1.60;0.80;;;11.60;99.90;;;;;;5030137;28;21277;-78
2021/05/05 11:13:14;;;;;;;1.57;0.70;;;12.10;99.90;;;;;;5030065;28;20238;-81
2021/05/05 11:15:43;;;;;;;1.17;0.90;;;12.30;99.90;;;;;;5029531;28;20226;-76
2021/05/05 11:18:27;;;;;;;1.07;0.90;;;12.30;99.90;;;;;;5030471;28;20209;-76
2021/05/05 11:20:54;;;;;;;0.80;0.80;;;12.30;99.90;;;;;;5030091;28;21097;-77
2021/05/05 11:23:35;;;;;;;0.60;0.60;;;12.20;99.90;;;;;;5027931;28;20179;-78
2021/05/05 11:26:32;;;;;;;1.27;0.90;;;12.50;99.90;;;;;;5045295;28;20213;-79
2021/05/05 11:29:10;;;;;;;0.87;0.87;;;12.60;99.90;;;;;;5016357;28;20213;-78
2021/05/05 11:31:48;;;;;;;0.93;0.60;;;12.60;99.90;;;;;;5029265;28;20182;-77
2021/05/05 11:34:23;;;;;;;1.13;0.80;;;12.20;99.90;;;;;;5028108;28;20256;-78
2021/05/05 11:36:58;;;;;;;1.20;1.00;;;12.40;99.90;;;;;;5028853;28;20225;-79
2021/05/05 11:39:31;;;;;;;0.77;0.70;;;12.50;99.90;;;;;;5027446;28;20331;-79
2021/05/05 11:42:19;;;;;;;0.60;0.60;;;12.70;99.90;;;;;;5029390;28;20193;-78
2021/05/05 11:44:53;;;;;;;0.70;0.70;;;12.90;99.90;;;;;;5029402;28;20195;-79
2021/05/05 11:47:25;;;;;;;0.67;0.67;;;13.10;99.90;;;;;;5035393;28;20187;-80
2021/05/05 11:50:03;;;;;;;0.65;0.65;;;13.10;99.90;;;;;;5027887;28;20254;-79
2021/05/05 11:52:37;;;;;;;1.15;0.60;;;13.00;99.90;;;;;;5028939;28;20345;-78
2021/05/05 11:55:18;;;;;;;0.57;0.57;;;12.90;99.90;;;;;;5027504;28;20692;-78
2021/05/05 11:57:51;;;;;;;0.77;0.77;;;12.90;99.90;;;;;;5029649;28;20562;-79
2021/05/05 12:00:31;;;;;;;0.97;0.67;;;12.70;99.90;;;;;;5029751;28;20194;-78
2021/05/05 12:02:58;;;;;;;2.83;1.20;;;12.90;99.90;;;;;;5029451;28;20191;-78
2021/05/05 12:05:44;;;;;;;0.60;0.60;;;12.90;99.90;;;;;;5028727;28;20199;-78
2021/05/05 12:08:14;;;;;;;1.57;0.90;;;12.40;99.90;;;;;;5027589;28;20174;-77
2021/05/05 12:10:43;;;;;;;1.20;1.10;;;12.30;99.90;;;;;;5027027;28;20183;-79
2021/05/05 12:13:23;;;;;;;1.17;0.63;;;11.90;99.90;;;;;;5042998;28;20183;-79
2021/05/05 12:18:21;;;;;;;1.23;0.80;;;11.60;99.90;;;;;;5027591;28;20552;-79
2021/05/05 12:20:49;;;;;;;0.60;0.60;;;11.70;99.90;;;;;;5029464;28;21023;-77
2021/05/05 12:23:16;;;;;;;0.57;0.57;;;11.90;99.90;;;;;;5046836;28;20179;-78
2021/05/05 12:25:42;;;;;;;0.77;0.77;;;11.90;99.90;;;;;;5030624;28;20206;-78
2021/05/05 12:28:11;;;;;;;1.23;0.50;;;11.90;99.90;;;;;;5029201;28;20282;-76
2021/05/05 12:30:46;;;;;;;0.80;0.80;;;11.90;99.90;;;;;;5030290;28;20175;-78
2021/05/05 12:33:14;;;;;;;0.87;0.67;;;12.10;99.90;;;;;;5030194;28;20209;-77
2021/05/05 12:35:41;;;;;;;0.90;0.53;;;12.50;99.90;;;;;;5031389;28;20202;-78
2021/05/05 12:38:16;;;;;;;0.60;0.60;;;12.80;99.90;;;;;;5031698;28;20194;-78
2021/05/05 12:40:42;;;;;;;1.33;0.87;;;13.00;99.90;;;;;;5032384;28;20181;-79
2021/05/05 12:43:25;;;;;;;0.73;0.70;;;12.70;99.90;;;;;;5047374;28;20186;-79
2021/05/05 12:45:52;;;;;;;1.23;1.13;;;12.30;99.90;;;;;;5030690;28;20228;-80
2021/05/05 12:48:38;;;;;;;0.50;0.50;;;12.00;99.90;;;;;;5032033;28;20309;-79
2021/05/05 12:51:20;;;;;;;1.60;0.90;;;11.70;99.90;;;;;;5031020;28;20827;-77
2021/05/05 12:53:50;;;;;;;0.50;0.50;;;11.40;99.90;;;;;;5030353;28;20198;-76
2021/05/05 12:56:19;;;;;;;0.93;0.50;;;10.60;99.90;;;;;;5031622;28;20206;-82
2021/05/05 12:58:46;;;;;;;1.00;0.53;;;10.40;99.90;;;;;;5030784;28;20676;-81
2021/05/05 13:01:13;;;;;;;0.93;0.70;;;10.60;99.90;;;;;;5028890;28;20231;-79
2021/05/05 13:03:46;;;;;;;0.70;0.50;;;10.80;99.90;;;;;;5029201;28;21071;-79
2021/05/05 13:06:15;;;;;;;0.60;0.60;;;11.00;99.90;;;;;;5027848;28;20248;-80
2021/05/05 13:08:52;;;;;;;0.87;0.70;;;11.40;99.90;;;;;;5029049;28;20194;-80